Time;durP1;ratioP1;P1;durP2;ratioP2;P2;SDS_P1;SDS_P2;PMS_P1;PMS_P2;Temp;Humidity;BMP_temperature;BMP_pressure;BME280_temperature;BME280_humidity;BME280_pressure;Samples;Min_cycle;Max_cycle;Signal;HPM_P1;HPM_P2
2020/12/06 00:00:54;;;;;;;23.33;14.90;;;4.90;99.90;;;;;;5090412;28;20024;-60
2020/12/06 00:03:20;;;;;;;22.05;13.93;;;4.90;99.90;;;;;;5090145;28;20077;-67
2020/12/06 00:05:46;;;;;;;24.48;14.20;;;4.90;99.90;;;;;;5091810;28;20028;-58
2020/12/06 00:08:12;;;;;;;22.52;14.48;;;4.90;99.90;;;;;;5090899;28;20016;-59
2020/12/06 00:10:37;;;;;;;23.77;15.10;;;4.80;99.90;;;;;;5090227;28;20206;-60
2020/12/06 00:13:03;;;;;;;25.67;15.63;;;4.90;99.90;;;;;;5090598;28;20434;-60
2020/12/06 00:15:29;;;;;;;24.35;16.15;;;4.90;99.90;;;;;;5089559;28;20053;-59
2020/12/06 00:17:54;;;;;;;21.95;14.20;;;4.90;99.90;;;;;;5091897;28;20466;-59
2020/12/06 00:20:20;;;;;;;23.92;14.70;;;5.00;99.90;;;;;;5091194;28;20027;-64
2020/12/06 00:22:46;;;;;;;23.75;14.77;;;4.90;99.90;;;;;;5091248;28;20032;-60
2020/12/06 00:25:12;;;;;;;23.48;14.40;;;4.90;99.90;;;;;;5091598;28;20441;-60
2020/12/06 00:27:38;;;;;;;25.67;15.23;;;4.90;99.90;;;;;;5090991;28;20028;-58
2020/12/06 00:30:08;;;;;;;24.08;15.77;;;4.90;99.90;;;;;;5090238;28;20031;-59
2020/12/06 00:32:34;;;;;;;20.40;14.27;;;5.00;99.90;;;;;;5089491;28;20374;-59
2020/12/06 00:35:00;;;;;;;24.90;15.20;;;5.00;99.90;;;;;;5091525;28;20039;-60
2020/12/06 00:37:26;;;;;;;23.73;14.95;;;4.90;99.90;;;;;;5089559;28;20024;-60
2020/12/06 00:39:51;;;;;;;28.10;15.88;;;4.90;99.90;;;;;;5089929;28;20043;-60
2020/12/06 00:42:17;;;;;;;25.15;15.20;;;4.80;99.90;;;;;;5090403;28;20034;-60
2020/12/06 00:44:43;;;;;;;24.77;15.35;;;4.80;99.90;;;;;;5088711;28;20059;-59
2020/12/06 00:47:09;;;;;;;23.77;15.52;;;4.80;99.90;;;;;;5089818;28;20052;-58
2020/12/06 00:49:34;;;;;;;25.88;15.60;;;4.70;99.90;;;;;;5089096;28;20557;-59
2020/12/06 00:52:00;;;;;;;24.27;14.65;;;4.60;99.90;;;;;;5091101;28;20028;-58
2020/12/06 00:54:26;;;;;;;25.48;15.35;;;4.60;99.90;;;;;;5088762;28;20421;-60
2020/12/06 00:56:58;;;;;;;23.95;15.40;;;4.60;99.90;;;;;;5089909;28;20103;-58
2020/12/06 00:59:24;;;;;;;;;;;4.70;99.90;;;;;;5091193;28;20032;-65
2020/12/06 01:01:50;;;;;;;22.17;13.50;;;4.80;99.90;;;;;;5089588;28;20388;-58
2020/12/06 01:04:16;;;;;;;19.73;13.93;;;4.80;99.90;;;;;;5089910;28;20440;-59
2020/12/06 01:06:41;;;;;;;25.50;15.63;;;4.80;99.90;;;;;;5088952;28;20111;-58
2020/12/06 01:09:07;;;;;;;22.77;14.93;;;4.80;99.90;;;;;;5089785;28;20084;-58
2020/12/06 01:11:33;;;;;;;22.25;15.65;;;4.80;99.90;;;;;;5088145;28;20346;-59
2020/12/06 01:13:58;;;;;;;22.80;14.57;;;4.80;99.90;;;;;;5089310;28;20380;-59
2020/12/06 01:16:24;;;;;;;22.77;14.93;;;4.80;99.90;;;;;;5090356;28;20028;-66
2020/12/06 01:18:50;;;;;;;27.33;16.27;;;4.80;99.90;;;;;;5089192;28;20031;-59
2020/12/06 01:21:15;;;;;;;22.60;15.15;;;4.80;99.90;;;;;;5088765;28;20024;-59
2020/12/06 01:23:41;;;;;;;22.50;15.03;;;4.80;99.90;;;;;;5088471;28;20138;-59
2020/12/06 01:26:11;;;;;;;24.33;16.20;;;4.80;99.90;;;;;;5088889;28;20077;-59
2020/12/06 01:28:37;;;;;;;21.40;14.55;;;4.80;99.90;;;;;;5089508;28;20078;-59
2020/12/06 01:31:03;;;;;;;22.83;13.98;;;4.80;99.90;;;;;;5089036;28;20024;-58
2020/12/06 01:33:29;;;;;;;21.98;15.38;;;4.80;99.90;;;;;;5089311;28;20046;-58
2020/12/06 01:35:54;;;;;;;24.40;15.00;;;4.70;99.90;;;;;;5089235;28;20138;-58
2020/12/06 01:38:20;;;;;;;22.42;14.23;;;4.80;99.90;;;;;;5090149;28;20472;-58
2020/12/06 01:40:46;;;;;;;21.52;14.05;;;4.90;99.90;;;;;;5088100;28;20028;-59
2020/12/06 01:43:11;;;;;;;25.58;15.45;;;4.90;99.90;;;;;;5089542;28;20032;-59
2020/12/06 01:45:38;;;;;;;24.27;15.55;;;4.70;99.90;;;;;;5090376;28;20039;-59
2020/12/06 01:48:07;;;;;;;21.90;14.95;;;4.80;99.90;;;;;;5092947;28;20096;-58
2020/12/06 01:50:37;;;;;;;22.27;15.20;;;4.80;99.90;;;;;;5109945;28;20447;-58
2020/12/06 01:53:04;;;;;;;22.73;14.18;;;4.80;99.90;;;;;;5111161;28;20031;-59
2020/12/06 01:55:31;;;;;;;24.65;15.27;;;4.80;99.90;;;;;;5109661;28;20096;-58
2020/12/06 01:58:07;;;;;;;23.48;14.90;;;4.80;99.90;;;;;;5096297;28;20028;-59
2020/12/06 02:00:34;;;;;;;26.35;14.70;;;4.80;99.90;;;;;;5114390;28;20341;-59
2020/12/06 02:03:00;;;;;;;21.27;14.55;;;4.80;99.90;;;;;;5096706;28;20034;-59
2020/12/06 02:05:28;;;;;;;22.38;14.73;;;4.90;99.90;;;;;;5096169;28;20039;-66
2020/12/06 02:07:57;;;;;;;19.25;13.77;;;4.90;99.90;;;;;;5096551;28;20031;-59
2020/12/06 02:10:24;;;;;;;21.00;13.93;;;5.00;99.90;;;;;;5096266;28;20407;-60
2020/12/06 02:12:53;;;;;;;22.88;13.82;;;4.90;99.90;;;;;;5095909;28;20070;-59
2020/12/06 02:15:18;;;;;;;22.48;13.90;;;4.90;99.90;;;;;;5096538;28;20038;-59
2020/12/06 02:17:44;;;;;;;21.25;14.20;;;4.90;99.90;;;;;;5095586;28;20393;-59
2020/12/06 02:20:10;;;;;;;23.25;13.75;;;4.80;99.90;;;;;;5114419;28;20448;-59
2020/12/06 02:22:35;;;;;;;23.70;14.20;;;4.80;99.90;;;;;;5095067;28;20023;-59
2020/12/06 02:25:01;;;;;;;19.58;12.68;;;4.90;99.90;;;;;;5095723;28;20031;-59
2020/12/06 02:27:27;;;;;;;20.98;13.63;;;4.90;99.90;;;;;;5095527;28;20123;-65
2020/12/06 02:29:52;;;;;;;21.55;13.98;;;4.90;99.90;;;;;;5095543;28;20122;-59
2020/12/06 02:32:18;;;;;;;23.50;14.98;;;4.80;99.90;;;;;;5095704;28;20024;-58
2020/12/06 02:34:44;;;;;;;23.30;14.02;;;4.90;99.90;;;;;;5095016;28;20024;-58
2020/12/06 02:37:10;;;;;;;20.90;13.45;;;4.90;99.90;;;;;;5095150;28;20024;-58
2020/12/06 02:39:35;;;;;;;20.58;13.82;;;5.00;99.90;;;;;;5095020;28;20028;-59
2020/12/06 02:42:01;;;;;;;21.42;13.57;;;5.00;99.90;;;;;;5095266;28;20035;-59
2020/12/06 02:44:27;;;;;;;20.33;12.80;;;5.00;99.90;;;;;;5095238;28;20067;-66
2020/12/06 02:46:52;;;;;;;19.25;13.40;;;5.10;99.90;;;;;;5091556;28;20048;-59
2020/12/06 02:49:18;;;;;;;22.02;13.65;;;5.10;99.90;;;;;;5093728;28;20024;-59
2020/12/06 02:51:44;;;;;;;20.02;13.05;;;5.10;99.90;;;;;;5092528;28;20043;-59
2020/12/06 02:54:09;;;;;;;20.73;12.90;;;5.00;99.90;;;;;;5093195;28;20035;-59
2020/12/06 02:56:35;;;;;;;19.67;12.32;;;5.00;99.90;;;;;;5091158;28;20031;-59
2020/12/06 02:59:01;;;;;;;21.58;13.45;;;5.00;99.90;;;;;;5091660;28;20060;-59
2020/12/06 03:01:36;;;;;;;20.98;13.73;;;5.00;99.90;;;;;;5093166;28;20028;-59
2020/12/06 03:04:01;;;;;;;19.88;12.38;;;5.10;99.90;;;;;;5092826;28;20113;-59
2020/12/06 03:06:27;;;;;;;19.75;12.73;;;5.00;99.90;;;;;;5091682;28;20063;-58
2020/12/06 03:08:53;;;;;;;18.45;12.85;;;5.00;99.90;;;;;;5092219;28;20419;-59
2020/12/06 03:11:21;;;;;;;17.92;12.38;;;5.00;99.90;;;;;;5091376;28;20032;-59
2020/12/06 03:13:46;;;;;;;19.70;13.00;;;5.00;99.90;;;;;;5091159;28;20025;-59
2020/12/06 03:16:12;;;;;;;18.33;12.13;;;5.10;99.90;;;;;;5091284;28;20043;-59
2020/12/06 03:18:38;;;;;;;23.40;13.43;;;5.10;99.90;;;;;;5090646;28;20024;-59
2020/12/06 03:21:04;;;;;;;21.20;13.68;;;5.10;99.90;;;;;;5091827;28;20122;-59
2020/12/06 03:23:30;;;;;;;22.23;12.25;;;5.10;99.90;;;;;;5092618;28;20105;-66
2020/12/06 03:25:55;;;;;;;20.20;11.95;;;5.10;99.90;;;;;;5091167;28;20119;-59
2020/12/06 03:28:21;;;;;;;21.10;13.85;;;5.20;99.90;;;;;;5091564;28;20024;-59
2020/12/06 03:30:47;;;;;;;20.92;13.02;;;5.10;99.90;;;;;;5090074;28;20127;-59
2020/12/06 03:33:12;;;;;;;18.08;12.65;;;5.10;99.90;;;;;;5091274;28;20046;-59
2020/12/06 03:35:38;;;;;;;21.33;13.57;;;5.10;99.90;;;;;;5090411;28;20024;-59
2020/12/06 03:38:04;;;;;;;19.50;13.50;;;5.00;99.90;;;;;;5091066;28;20047;-59
2020/12/06 03:40:30;;;;;;;22.48;13.98;;;5.00;99.90;;;;;;5092946;28;20476;-58
2020/12/06 03:42:55;;;;;;;22.38;13.27;;;4.90;99.90;;;;;;5090436;28;20028;-58
2020/12/06 03:45:21;;;;;;;22.55;13.70;;;5.00;99.90;;;;;;5091205;28;20362;-59
2020/12/06 03:47:47;;;;;;;24.05;13.40;;;5.00;99.90;;;;;;5111614;28;20471;-59
2020/12/06 03:50:13;;;;;;;21.02;14.00;;;5.00;99.90;;;;;;5112679;28;20421;-59
2020/12/06 03:52:39;;;;;;;21.60;12.70;;;5.00;99.90;;;;;;5111606;28;20020;-62
2020/12/06 03:55:05;;;;;;;20.73;12.90;;;5.00;99.90;;;;;;5094531;28;20483;-58
2020/12/06 03:57:31;;;;;;;19.67;12.48;;;5.00;99.90;;;;;;5093941;28;20048;-64
2020/12/06 03:59:57;;;;;;;19.98;12.80;;;5.00;99.90;;;;;;5111785;28;20110;-58
2020/12/06 04:02:23;;;;;;;20.80;12.85;;;4.90;99.90;;;;;;5094336;28;20027;-60
2020/12/06 04:04:48;;;;;;;20.13;13.27;;;5.20;99.90;;;;;;5092987;28;20108;-58
2020/12/06 04:07:14;;;;;;;17.98;12.15;;;5.00;99.90;;;;;;5111783;28;20031;-58
2020/12/06 04:09:40;;;;;;;19.05;11.88;;;5.00;99.90;;;;;;5112021;28;20108;-59
2020/12/06 04:12:05;;;;;;;18.85;11.13;;;5.10;99.90;;;;;;5094124;28;20034;-58
2020/12/06 04:14:31;;;;;;;21.73;13.35;;;5.10;99.90;;;;;;5093543;28;20205;-58
2020/12/06 04:16:57;;;;;;;21.77;13.57;;;5.10;99.90;;;;;;5093641;28;20059;-58
2020/12/06 04:19:22;;;;;;;20.10;12.85;;;5.00;99.90;;;;;;5111161;28;20085;-58
2020/12/06 04:21:48;;;;;;;20.15;12.38;;;5.00;99.90;;;;;;5093035;28;20047;-58
2020/12/06 04:24:15;;;;;;;16.65;11.30;;;5.00;99.90;;;;;;5093751;28;20431;-58
2020/12/06 04:26:41;;;;;;;21.75;13.35;;;4.90;99.90;;;;;;5092966;28;20028;-58
2020/12/06 04:29:07;;;;;;;17.83;12.00;;;5.00;99.90;;;;;;5111571;28;20369;-58
2020/12/06 04:31:33;;;;;;;17.55;11.75;;;5.10;99.90;;;;;;5093732;28;20481;-61
2020/12/06 04:33:58;;;;;;;17.08;11.18;;;5.00;99.90;;;;;;5093105;28;20028;-58
2020/12/06 04:36:24;;;;;;;18.88;12.32;;;5.00;99.90;;;;;;5111893;28;20024;-58
2020/12/06 04:38:50;;;;;;;18.48;11.52;;;5.00;99.90;;;;;;5092064;28;20023;-59
2020/12/06 04:41:15;;;;;;;17.15;11.85;;;5.10;99.90;;;;;;5111590;28;20035;-58
2020/12/06 04:43:44;;;;;;;18.48;12.18;;;5.10;99.90;;;;;;5110766;28;20325;-58
2020/12/06 04:46:10;;;;;;;17.35;11.85;;;5.00;99.90;;;;;;5092381;28;20047;-57
2020/12/06 04:49:03;;;;;;;19.58;12.10;;;5.20;99.90;;;;;;5111465;28;20024;-64
2020/12/06 04:51:38;;;;;;;16.42;11.00;;;5.20;99.90;;;;;;5093126;28;20031;-58
2020/12/06 04:54:05;;;;;;;21.23;12.27;;;5.10;99.90;;;;;;5093259;28;20024;-58
2020/12/06 04:56:31;;;;;;;20.83;12.52;;;5.20;99.90;;;;;;5093214;28;20358;-58
2020/12/06 04:59:02;;;;;;;17.70;11.93;;;5.10;99.90;;;;;;5092240;28;20023;-58
2020/12/06 05:01:39;;;;;;;17.77;12.25;;;5.20;99.90;;;;;;5093103;28;20027;-58
2020/12/06 05:04:15;;;;;;;18.80;12.65;;;5.20;99.90;;;;;;5092972;28;20024;-58
2020/12/06 05:06:42;;;;;;;15.43;10.60;;;5.30;99.90;;;;;;5104101;28;20063;-58
2020/12/06 05:09:10;;;;;;;20.15;12.63;;;5.20;99.90;;;;;;5092988;28;20031;-58
2020/12/06 05:11:36;;;;;;;18.10;11.95;;;5.20;99.90;;;;;;5093019;28;20039;-64
2020/12/06 05:14:06;;;;;;;16.73;10.88;;;5.20;99.90;;;;;;5092695;28;20030;-58
2020/12/06 05:16:39;;;;;;;20.95;12.20;;;5.20;99.90;;;;;;5093007;28;20168;-58
2020/12/06 05:19:11;;;;;;;22.38;13.63;;;5.20;99.90;;;;;;5111508;28;20020;-61
2020/12/06 05:21:38;;;;;;;;;;;5.20;99.90;;;;;;5093173;28;20024;-65
2020/12/06 05:24:04;;;;;;;17.85;11.38;;;5.10;99.90;;;;;;5092545;28;20052;-58
2020/12/06 05:26:31;;;;;;;19.65;12.73;;;5.20;99.90;;;;;;5092643;28;20114;-58
2020/12/06 05:28:57;;;;;;;20.13;12.88;;;5.20;99.90;;;;;;5092299;28;20469;-58
2020/12/06 05:31:23;;;;;;;22.70;13.30;;;5.20;99.90;;;;;;5092643;28;20031;-58
2020/12/06 05:33:50;;;;;;;19.50;13.23;;;5.20;99.90;;;;;;5110835;28;20034;-60
2020/12/06 05:36:16;;;;;;;21.17;13.20;;;5.30;99.90;;;;;;5110919;28;20349;-58
2020/12/06 05:38:42;;;;;;;20.23;12.68;;;5.20;99.90;;;;;;5091880;28;20028;-59
2020/12/06 05:41:08;;;;;;;20.35;12.65;;;5.20;99.90;;;;;;5092363;28;20036;-58
2020/12/06 05:43:34;;;;;;;19.50;13.63;;;5.30;99.90;;;;;;5092602;28;20032;-58
2020/12/06 05:46:05;;;;;;;20.02;12.85;;;5.20;99.90;;;;;;5091576;28;20635;-59
2020/12/06 05:48:32;;;;;;;20.87;12.73;;;5.20;99.90;;;;;;5092634;28;20077;-59
2020/12/06 05:50:59;;;;;;;18.85;12.50;;;5.20;99.90;;;;;;5091675;28;20280;-58
2020/12/06 05:53:26;;;;;;;18.88;11.82;;;5.20;99.90;;;;;;5092662;28;20047;-58
2020/12/06 05:56:04;;;;;;;21.30;13.05;;;5.20;99.90;;;;;;5109853;28;20027;-58
2020/12/06 05:58:31;;;;;;;20.70;13.80;;;5.20;99.90;;;;;;5092806;28;20072;-59
2020/12/06 06:00:59;;;;;;;23.38;13.27;;;5.20;99.90;;;;;;5091680;28;20047;-59
2020/12/06 06:03:28;;;;;;;19.60;13.73;;;5.20;99.90;;;;;;5110417;28;20031;-59
2020/12/06 06:05:56;;;;;;;20.35;12.82;;;5.10;99.90;;;;;;5091452;28;20024;-58
2020/12/06 06:08:25;;;;;;;24.30;14.68;;;5.20;99.90;;;;;;5092167;28;20073;-59
2020/12/06 06:11:29;;;;;;;25.63;15.13;;;5.20;99.90;;;;;;5091701;28;20080;-59
2020/12/06 06:13:57;;;;;;;22.63;13.98;;;5.30;99.90;;;;;;5091758;28;20085;-59
2020/12/06 06:16:31;;;;;;;22.20;14.73;;;5.30;99.90;;;;;;5110524;28;20037;-59
2020/12/06 06:18:59;;;;;;;22.90;14.25;;;5.30;99.90;;;;;;5091162;28;20441;-59
2020/12/06 06:21:31;;;;;;;23.65;16.30;;;5.30;99.90;;;;;;5092498;28;20110;-59
2020/12/06 06:24:00;;;;;;;20.40;14.00;;;5.30;99.90;;;;;;5091102;28;20039;-59
2020/12/06 06:26:30;;;;;;;20.52;13.60;;;5.40;99.90;;;;;;5092339;28;20038;-59
2020/12/06 06:28:55;;;;;;;23.67;14.75;;;5.20;99.90;;;;;;5091556;28;20073;-59
2020/12/06 06:31:21;;;;;;;21.48;13.73;;;5.10;99.90;;;;;;5092216;28;20024;-59
2020/12/06 06:33:49;;;;;;;21.35;14.35;;;5.10;99.90;;;;;;5091018;28;20389;-59
2020/12/06 06:36:18;;;;;;;22.73;14.82;;;5.20;99.90;;;;;;5092339;28;20016;-59
2020/12/06 06:38:44;;;;;;;22.15;14.38;;;5.20;99.90;;;;;;5091644;28;20039;-63
2020/12/06 06:41:11;;;;;;;23.95;15.13;;;5.10;99.90;;;;;;5110574;28;20100;-57
2020/12/06 06:43:42;;;;;;;23.23;14.32;;;5.20;99.90;;;;;;5094794;28;20100;-58
2020/12/06 06:46:15;;;;;;;20.98;13.65;;;5.10;99.90;;;;;;5091746;28;20066;-58
2020/12/06 06:48:46;;;;;;;22.08;14.48;;;5.20;99.90;;;;;;5092436;28;20028;-64
2020/12/06 06:51:19;;;;;;;20.95;14.63;;;5.30;99.90;;;;;;5092551;28;20027;-58
2020/12/06 06:53:45;;;;;;;20.58;14.18;;;5.20;99.90;;;;;;5091733;28;20024;-65
2020/12/06 06:56:11;;;;;;;24.42;16.00;;;5.20;99.90;;;;;;5091432;28;20503;-58
2020/12/06 06:58:37;;;;;;;21.83;14.48;;;5.20;99.90;;;;;;5092060;28;20020;-58
2020/12/06 07:01:24;;;;;;;21.35;13.48;;;5.20;99.90;;;;;;5091210;28;20031;-58
2020/12/06 07:03:54;;;;;;;22.30;14.32;;;5.30;99.90;;;;;;5090815;28;20361;-58
2020/12/06 07:06:45;;;;;;;22.27;14.38;;;5.30;99.90;;;;;;5091921;28;20233;-57
2020/12/06 07:09:12;;;;;;;23.33;15.05;;;5.20;99.90;;;;;;5092006;28;20031;-57
2020/12/06 07:11:39;;;;;;;26.30;15.75;;;5.10;99.90;;;;;;5092044;28;20403;-58
2020/12/06 07:14:05;;;;;;;22.25;14.32;;;5.10;99.90;;;;;;5091080;28;20112;-58
2020/12/06 07:16:31;;;;;;;21.60;14.05;;;5.10;99.90;;;;;;5090936;28;20032;-60
2020/12/06 07:18:57;;;;;;;26.92;14.27;;;5.20;99.90;;;;;;5092686;28;20040;-58
2020/12/06 07:21:38;;;;;;;21.95;14.73;;;5.20;99.90;;;;;;5091584;28;20031;-58
2020/12/06 07:24:05;;;;;;;23.40;14.82;;;5.20;99.90;;;;;;5092043;28;20055;-58
2020/12/06 07:26:32;;;;;;;20.38;13.30;;;5.30;99.90;;;;;;5093256;28;20036;-58
2020/12/06 07:28:58;;;;;;;21.20;13.18;;;5.30;99.90;;;;;;5090679;28;20082;-58
2020/12/06 07:31:25;;;;;;;22.73;14.18;;;5.30;99.90;;;;;;5090649;28;20457;-58
2020/12/06 07:33:51;;;;;;;21.52;13.55;;;5.30;99.90;;;;;;5090750;28;20030;-59
2020/12/06 07:36:17;;;;;;;21.10;13.73;;;5.30;99.90;;;;;;5092339;28;20103;-58
2020/12/06 07:38:43;;;;;;;21.58;13.70;;;5.30;99.90;;;;;;5092783;28;20024;-58
2020/12/06 07:41:10;;;;;;;22.88;14.57;;;5.30;99.90;;;;;;5091521;28;20027;-58
2020/12/06 07:43:35;;;;;;;23.00;13.88;;;5.30;99.90;;;;;;5091038;28;20164;-59
2020/12/06 07:46:14;;;;;;;20.27;14.65;;;5.40;99.90;;;;;;5090169;28;20163;-58
2020/12/06 07:48:40;;;;;;;20.88;14.30;;;5.50;99.90;;;;;;5090546;28;20032;-58
2020/12/06 07:51:06;;;;;;;20.67;13.75;;;5.60;99.90;;;;;;5090313;28;20418;-58
2020/12/06 07:53:51;;;;;;;20.83;14.35;;;5.70;99.90;;;;;;5091108;28;20020;-58
2020/12/06 07:56:22;;;;;;;20.73;13.48;;;5.70;99.90;;;;;;5084074;28;20055;-58
2020/12/06 07:59:07;;;;;;;22.90;14.85;;;5.70;99.90;;;;;;5090743;28;20042;-67
2020/12/06 08:01:33;;;;;;;24.77;13.75;;;5.80;99.90;;;;;;5091144;28;20024;-59
2020/12/06 08:03:59;;;;;;;25.90;15.02;;;5.80;99.90;;;;;;5090017;28;20095;-58
2020/12/06 08:06:28;;;;;;;21.52;14.32;;;5.80;99.90;;;;;;5090170;28;20028;-57
2020/12/06 08:08:59;;;;;;;23.88;15.13;;;5.70;99.90;;;;;;5089992;28;20024;-59
2020/12/06 08:11:31;;;;;;;21.38;13.75;;;5.70;99.90;;;;;;5090646;28;20032;-59
2020/12/06 08:13:58;;;;;;;19.80;13.77;;;5.70;99.90;;;;;;5090878;28;20035;-59
2020/12/06 08:16:23;;;;;;;22.92;14.25;;;5.60;99.90;;;;;;5090424;28;20020;-58
2020/12/06 08:18:59;;;;;;;21.10;13.50;;;5.50;99.90;;;;;;5091150;28;20080;-64
2020/12/06 08:21:25;;;;;;;23.73;15.27;;;5.70;99.90;;;;;;5090099;28;20024;-58
2020/12/06 08:23:50;;;;;;;20.45;12.95;;;5.60;99.90;;;;;;5089134;28;20020;-64
2020/12/06 08:26:16;;;;;;;22.45;14.10;;;5.70;99.90;;;;;;5091289;28;20496;-57
2020/12/06 08:28:48;;;;;;;21.45;14.05;;;5.60;99.90;;;;;;5091243;28;20035;-58
2020/12/06 08:31:21;;;;;;;23.30;13.15;;;5.60;99.90;;;;;;5089021;28;20028;-58
2020/12/06 08:33:47;;;;;;;20.75;13.68;;;5.70;99.90;;;;;;5090013;28;20032;-63
2020/12/06 08:36:23;;;;;;;22.05;13.55;;;5.70;99.90;;;;;;5088864;28;20038;-58
2020/12/06 08:38:49;;;;;;;21.98;13.27;;;5.60;99.90;;;;;;5089959;28;20127;-65
2020/12/06 08:41:15;;;;;;;20.60;14.20;;;5.60;99.90;;;;;;5090796;28;20036;-59
2020/12/06 08:43:50;;;;;;;21.98;14.48;;;5.50;99.90;;;;;;5090957;28;20089;-58
2020/12/06 08:46:24;;;;;;;24.75;15.10;;;5.60;99.90;;;;;;5089263;28;20055;-59
2020/12/06 08:48:54;;;;;;;23.85;15.05;;;5.60;99.90;;;;;;5088918;28;20033;-65
2020/12/06 08:51:32;;;;;;;24.98;15.05;;;5.50;99.90;;;;;;5089804;28;20028;-58
2020/12/06 08:54:00;;;;;;;19.85;13.43;;;5.50;99.90;;;;;;5089154;28;20123;-58
2020/12/06 08:56:32;;;;;;;20.58;13.95;;;5.60;99.90;;;;;;5089923;28;20368;-59
2020/12/06 08:59:16;;;;;;;20.13;13.27;;;5.60;99.90;;;;;;5089050;28;20469;-60
2020/12/06 09:01:52;;;;;;;19.38;13.10;;;5.60;99.90;;;;;;5091317;28;20024;-58
2020/12/06 09:04:19;;;;;;;22.42;13.93;;;5.50;99.90;;;;;;5072894;28;20400;-58
2020/12/06 09:06:46;;;;;;;20.98;14.50;;;5.60;99.90;;;;;;5090443;28;20031;-59
2020/12/06 09:09:12;;;;;;;24.50;14.45;;;5.60;99.90;;;;;;5088761;28;20301;-58
2020/12/06 09:11:37;;;;;;;21.25;14.50;;;5.60;99.90;;;;;;5091097;28;20028;-59
2020/12/06 09:14:03;;;;;;;20.85;13.70;;;5.60;99.90;;;;;;5088331;28;20428;-58
2020/12/06 09:16:29;;;;;;;19.95;13.30;;;5.70;99.90;;;;;;5088784;28;20031;-58
2020/12/06 09:18:55;;;;;;;23.38;14.80;;;5.70;99.90;;;;;;5088484;28;20158;-58
2020/12/06 09:21:21;;;;;;;26.33;15.30;;;5.70;99.90;;;;;;5089046;28;20059;-58
2020/12/06 09:23:47;;;;;;;23.85;14.55;;;5.70;99.90;;;;;;5088600;28;20032;-59
2020/12/06 09:26:13;;;;;;;20.58;13.70;;;5.80;99.90;;;;;;5087899;28;20111;-59
2020/12/06 09:28:39;;;;;;;20.58;14.55;;;5.70;99.90;;;;;;5089552;28;20392;-58
2020/12/06 09:31:05;;;;;;;22.55;14.98;;;5.80;99.90;;;;;;5088354;28;20389;-57
2020/12/06 09:33:31;;;;;;;20.55;13.93;;;5.70;99.90;;;;;;5090510;28;20028;-58
2020/12/06 09:35:57;;;;;;;19.38;12.82;;;5.60;99.90;;;;;;5088649;28;20429;-59
2020/12/06 09:38:23;;;;;;;25.40;16.23;;;5.60;99.90;;;;;;5090334;28;20465;-59
2020/12/06 09:40:49;;;;;;;23.40;14.45;;;5.60;99.90;;;;;;5088898;28;20437;-60
2020/12/06 09:43:15;;;;;;;22.27;14.50;;;5.80;99.90;;;;;;5082431;28;20024;-59
2020/12/06 09:45:42;;;;;;;22.27;14.27;;;5.90;99.90;;;;;;5077530;28;20085;-60
2020/12/06 09:48:08;;;;;;;20.65;14.57;;;5.90;99.90;;;;;;5077737;28;20079;-64
2020/12/06 09:50:34;;;;;;;22.27;14.85;;;5.80;99.90;;;;;;5078176;28;20532;-59
2020/12/06 09:53:00;;;;;;;22.30;15.13;;;5.80;99.90;;;;;;5077886;28;20182;-66
2020/12/06 09:55:25;;;;;;;23.42;14.18;;;5.80;99.90;;;;;;5106086;28;20353;-60
2020/12/06 09:57:51;;;;;;;21.67;13.40;;;5.80;99.90;;;;;;5077488;28;20423;-60
2020/12/06 10:00:17;;;;;;;23.48;15.18;;;5.80;99.90;;;;;;5088243;28;20028;-59
2020/12/06 10:02:43;;;;;;;22.40;15.25;;;5.90;99.90;;;;;;5090507;28;20038;-60
2020/12/06 10:05:10;;;;;;;22.52;15.05;;;5.90;99.90;;;;;;5092162;28;20081;-60
2020/12/06 10:07:36;;;;;;;23.05;14.55;;;5.80;99.90;;;;;;5093167;28;20059;-59
2020/12/06 10:10:06;;;;;;;20.50;13.35;;;6.00;99.90;;;;;;5110523;28;20490;-60
2020/12/06 10:12:31;;;;;;;22.08;14.93;;;6.00;99.90;;;;;;5098349;28;20024;-59
2020/12/06 10:14:57;;;;;;;22.35;14.43;;;6.00;99.90;;;;;;5085123;28;20484;-60
2020/12/06 10:17:24;;;;;;;25.05;15.55;;;6.00;99.90;;;;;;5077301;28;20032;-58
2020/12/06 10:19:50;;;;;;;23.48;15.50;;;6.00;99.90;;;;;;5095857;28;20027;-59
2020/12/06 10:22:15;;;;;;;24.75;16.30;;;6.10;99.90;;;;;;5094925;28;20266;-59
2020/12/06 10:24:41;;;;;;;23.42;15.10;;;6.00;99.90;;;;;;5114477;28;20067;-60
2020/12/06 10:27:07;;;;;;;25.08;14.40;;;6.10;99.90;;;;;;5095057;28;20078;-59
2020/12/06 10:29:33;;;;;;;23.60;15.02;;;6.10;99.90;;;;;;5108934;28;20020;-60
2020/12/06 10:32:00;;;;;;;23.98;15.23;;;6.10;99.90;;;;;;5083806;28;20078;-60
2020/12/06 10:34:26;;;;;;;24.38;15.80;;;6.10;99.90;;;;;;5078149;28;20028;-59
2020/12/06 10:36:57;;;;;;;27.83;16.27;;;6.30;99.90;;;;;;5075444;28;20123;-59
2020/12/06 10:39:24;;;;;;;29.50;19.00;;;6.20;99.90;;;;;;5075150;28;20038;-58
2020/12/06 10:41:57;;;;;;;31.23;18.98;;;6.30;99.90;;;;;;5074826;28;20028;-60
2020/12/06 10:44:25;;;;;;;26.52;16.77;;;6.20;99.90;;;;;;5075083;28;20036;-59
2020/12/06 10:46:52;;;;;;;25.10;16.95;;;6.20;99.90;;;;;;5071787;28;20401;-62
2020/12/06 10:49:18;;;;;;;22.33;14.95;;;6.30;99.90;;;;;;5071311;28;20020;-59
2020/12/06 10:51:45;;;;;;;23.30;16.00;;;6.40;99.90;;;;;;5071942;28;20028;-60
2020/12/06 10:54:12;;;;;;;25.83;17.38;;;6.40;99.90;;;;;;5079618;28;20016;-60
2020/12/06 10:56:39;;;;;;;26.30;15.95;;;6.30;99.90;;;;;;5091830;28;20081;-60
2020/12/06 10:59:05;;;;;;;26.48;16.25;;;6.10;99.90;;;;;;5090174;28;20119;-59
2020/12/06 11:01:32;;;;;;;26.15;16.48;;;6.00;99.90;;;;;;5092333;28;20036;-60
2020/12/06 11:03:59;;;;;;;26.17;15.85;;;5.90;99.90;;;;;;5075111;28;20063;-64
2020/12/06 11:06:25;;;;;;;23.88;15.65;;;6.10;99.90;;;;;;5089144;28;20040;-59
2020/12/06 11:08:51;;;;;;;24.95;15.35;;;6.20;99.90;;;;;;5090895;28;20362;-58
2020/12/06 11:11:18;;;;;;;26.30;17.08;;;6.20;99.90;;;;;;5089405;28;20024;-59
2020/12/06 11:13:45;;;;;;;30.73;18.15;;;6.20;99.90;;;;;;5092372;28;20544;-61
2020/12/06 11:16:18;;;;;;;27.88;15.77;;;6.20;99.90;;;;;;5089931;28;20024;-60
2020/12/06 11:18:45;;;;;;;33.33;17.73;;;6.20;99.90;;;;;;5073102;28;20032;-60
2020/12/06 11:21:13;;;;;;;28.35;17.70;;;6.10;99.90;;;;;;5070178;28;20075;-59
2020/12/06 11:23:39;;;;;;;30.00;16.08;;;6.00;99.90;;;;;;5072010;28;20358;-59
2020/12/06 11:26:05;;;;;;;29.98;17.35;;;5.90;99.90;;;;;;5079064;28;20028;-59
2020/12/06 11:28:30;;;;;;;26.23;17.35;;;5.90;99.90;;;;;;5070531;28;20479;-59
2020/12/06 11:30:56;;;;;;;30.50;19.27;;;6.00;99.90;;;;;;5090799;28;20062;-64
2020/12/06 11:33:22;;;;;;;31.95;18.73;;;6.00;99.90;;;;;;5080335;28;20028;-60
2020/12/06 11:35:48;;;;;;;31.30;19.17;;;6.00;99.90;;;;;;5079270;28;20040;-58
2020/12/06 11:38:15;;;;;;;32.28;19.02;;;6.10;99.90;;;;;;5077736;28;20403;-59
2020/12/06 11:40:41;;;;;;;35.35;18.75;;;6.10;99.90;;;;;;5090669;28;20028;-59
2020/12/06 11:43:07;;;;;;;29.98;16.50;;;6.10;99.90;;;;;;5086978;28;20503;-59
2020/12/06 11:45:33;;;;;;;27.85;17.58;;;6.10;99.90;;;;;;5079931;28;20036;-60
2020/12/06 11:47:58;;;;;;;28.58;17.65;;;6.10;99.90;;;;;;5068429;28;20053;-64
2020/12/06 11:50:24;;;;;;;31.65;19.08;;;6.20;99.90;;;;;;5070293;28;20040;-59
2020/12/06 11:52:50;;;;;;;33.05;20.52;;;6.20;99.90;;;;;;5071627;28;20457;-58
2020/12/06 11:55:16;;;;;;;34.75;20.70;;;6.10;99.90;;;;;;5068981;28;20024;-60
2020/12/06 11:57:41;;;;;;;40.67;22.15;;;6.10;99.90;;;;;;5070429;28;20051;-60
2020/12/06 12:00:08;;;;;;;36.88;21.58;;;6.10;99.90;;;;;;5070961;28;20032;-59
2020/12/06 12:02:34;;;;;;;37.97;20.98;;;6.00;99.90;;;;;;5070356;28;20036;-60
2020/12/06 12:05:00;;;;;;;34.30;20.40;;;6.00;99.90;;;;;;5074802;28;20032;-67
2020/12/06 12:07:26;;;;;;;34.20;19.98;;;5.80;99.90;;;;;;5085192;28;20043;-58
2020/12/06 12:09:51;;;;;;;36.78;19.90;;;5.90;99.90;;;;;;5089579;28;20400;-61
2020/12/06 12:12:17;;;;;;;32.17;19.67;;;5.90;99.90;;;;;;5087272;28;20043;-60
2020/12/06 12:14:43;;;;;;;35.53;20.70;;;5.70;99.90;;;;;;5090558;28;20023;-60
2020/12/06 12:17:09;;;;;;;33.80;19.45;;;5.70;99.90;;;;;;5090140;28;20029;-61
2020/12/06 12:19:36;;;;;;;39.25;21.83;;;5.70;99.90;;;;;;5081229;28;20097;-61
2020/12/06 12:22:02;;;;;;;39.90;21.83;;;5.70;99.90;;;;;;5077743;28;20077;-60
2020/12/06 12:24:28;;;;;;;35.55;20.27;;;5.80;99.90;;;;;;5078135;28;20048;-62
2020/12/06 12:27:01;;;;;;;36.70;20.52;;;5.60;99.90;;;;;;5069654;28;20385;-65
2020/12/06 12:29:27;;;;;;;31.77;19.20;;;6.50;99.90;;;;;;5072202;28;20058;-59
2020/12/06 12:31:53;;;;;;;35.55;20.13;;;6.20;99.90;;;;;;5069853;28;20029;-62
2020/12/06 12:34:19;;;;;;;33.63;18.20;;;6.00;99.90;;;;;;5068895;28;20599;-59
2020/12/06 12:36:46;;;;;;;34.45;19.13;;;5.80;99.90;;;;;;5069474;28;20040;-60
2020/12/06 12:39:12;;;;;;;29.90;16.65;;;5.90;99.90;;;;;;5068325;28;20119;-61